Terminal Aerodrome Forecast
Issued by NWS Twin Cities, MN

Home | Current Version | Previous Version | Graphics & Text | Print | Product List | Glossary On
Versions: 1 2 3 4 5 6 7 8 9 10 11 12 13 14 15 16 17 18 19 20 21 22 23 24 25
123
FTUS43 KMPX 050238 AAA
TAFMSP
TAF AMD
KMSP 050238Z 0503/0606 01003KT P6SM SCT250
     FM051200 17005KT P6SM SCT090 BKN120
     FM051900 22009KT P6SM SCT120=

USA.gov is the U.S. government's official web portal to all federal, state and local government web resources and services.